Boyero, Colorado
Current Conditions -  °F | °C
As of 9:55 PM on Friday 31 Oct 2014 (Local Time) from KLIC Reporting Station
Clear Clear  
Wind Chill: 25°   Ceiling: Unl
Heat Index: 34°   Visibility: 10mi
Dew Point: 25°   Wind: 13mph
Humidity: 70%   Direction: 150°SSE
Pressure: 30.15"   Gusts: NA
Location:  38.9913°N, 103.506°W
Report Text: KLIC 010355Z AUTO 15011KT 10SM CLR 01/M04 A3015 RMK AO2 SLP212 T00111039
Loading
Personal Weather Stations






























Interactive Weather Map
Tropical Storm Tracking
New forecast layout! Learn more

10-Day Weather Forecast

Advertisements
Track Severe Weather on mobile